sensor_id;sensor_type;location;lat;lon;timestamp;pressure;altitude;pressure_sealevel;temperature;humidity
70015;BME280;57358;51.094;6.760;2023-04-28T00:02:08;100845.19;;;10.68;68.87
70015;BME280;57358;51.094;6.760;2023-04-28T00:04:35;100829.22;;;10.55;69.08
70015;BME280;57358;51.094;6.760;2023-04-28T00:07:01;100797.94;;;10.33;69.17
70015;BME280;57358;51.094;6.760;2023-04-28T00:09:28;100833.44;;;10.58;70.08
70015;BME280;57358;51.094;6.760;2023-04-28T00:11:54;100847.03;;;10.66;69.88
70015;BME280;57358;51.094;6.760;2023-04-28T00:14:21;100850.53;;;10.67;70.43
70015;BME280;57358;51.094;6.760;2023-04-28T00:16:47;100860.16;;;10.66;70.89
70015;BME280;57358;51.094;6.760;2023-04-28T00:19:14;100861.09;;;10.65;72.47
70015;BME280;57358;51.094;6.760;2023-04-28T00:21:40;100728.72;;;9.82;72.87
70015;BME280;57358;51.094;6.760;2023-04-28T00:24:07;100839.94;;;10.51;73.81
70015;BME280;57358;51.094;6.760;2023-04-28T00:26:33;100667.41;;;9.50;74.63
70015;BME280;57358;51.094;6.760;2023-04-28T00:28:59;100849.28;;;10.56;75.83
70015;BME280;57358;51.094;6.760;2023-04-28T00:31:26;100872.13;;;10.54;78.46
70015;BME280;57358;51.094;6.760;2023-04-28T00:33:52;100868.25;;;10.44;80.42
70015;BME280;57358;51.094;6.760;2023-04-28T00:36:19;100872.50;;;10.47;81.82
70015;BME280;57358;51.094;6.760;2023-04-28T00:38:47;100873.34;;;10.47;82.81
70015;BME280;57358;51.094;6.760;2023-04-28T00:41:14;100742.78;;;9.62;84.66
70015;BME280;57358;51.094;6.760;2023-04-28T00:43:45;100847.41;;;10.22;86.18
70015;BME280;57358;51.094;6.760;2023-04-28T00:46:19;100869.09;;;10.45;86.40
70015;BME280;57358;51.094;6.760;2023-04-28T00:48:47;100804.38;;;10.09;84.84
70015;BME280;57358;51.094;6.760;2023-04-28T00:51:14;100765.00;;;9.91;84.11
70015;BME280;57358;51.094;6.760;2023-04-28T00:53:41;100838.22;;;10.50;82.65
70015;BME280;57358;51.094;6.760;2023-04-28T00:56:09;100822.88;;;10.60;81.52
70015;BME280;57358;51.094;6.760;2023-04-28T00:58:36;100756.03;;;10.32;79.96
70015;BME280;57358;51.094;6.760;2023-04-28T01:01:06;100790.53;;;10.59;79.99
70015;BME280;57358;51.094;6.760;2023-04-28T01:03:35;100786.59;;;10.68;78.92
70015;BME280;57358;51.094;6.760;2023-04-28T01:06:07;100774.50;;;10.65;78.15
70015;BME280;57358;51.094;6.760;2023-04-28T01:08:35;100698.94;;;10.19;78.01
70015;BME280;57358;51.094;6.760;2023-04-28T01:11:02;100785.81;;;10.66;78.19
70015;BME280;57358;51.094;6.760;2023-04-28T01:13:28;100707.34;;;10.09;78.73
70015;BME280;57358;51.094;6.760;2023-04-28T01:15:55;100762.63;;;10.41;79.17
70015;BME280;57358;51.094;6.760;2023-04-28T01:18:24;100797.47;;;10.60;79.24
70015;BME280;57358;51.094;6.760;2023-04-28T01:20:50;100799.31;;;10.58;79.57
70015;BME280;57358;51.094;6.760;2023-04-28T01:23:17;100733.97;;;10.18;80.23
70015;BME280;57358;51.094;6.760;2023-04-28T01:25:43;100802.13;;;10.55;81.00
70015;BME280;57358;51.094;6.760;2023-04-28T01:28:10;100798.03;;;10.49;81.66
70015;BME280;57358;51.094;6.760;2023-04-28T01:30:37;100803.91;;;10.54;82.35
70015;BME280;57358;51.094;6.760;2023-04-28T01:33:03;100811.09;;;10.51;82.46
70015;BME280;57358;51.094;6.760;2023-04-28T01:35:30;100774.06;;;10.21;83.02
70015;BME280;57358;51.094;6.760;2023-04-28T01:37:56;100819.03;;;10.49;83.21
70015;BME280;57358;51.094;6.760;2023-04-28T01:40:23;100813.84;;;10.48;82.97
70015;BME280;57358;51.094;6.760;2023-04-28T01:42:49;100807.75;;;10.47;83.50
70015;BME280;57358;51.094;6.760;2023-04-28T01:45:16;100806.13;;;10.45;84.52
70015;BME280;57358;51.094;6.760;2023-04-28T01:47:42;100802.66;;;10.44;84.14
70015;BME280;57358;51.094;6.760;2023-04-28T01:50:09;100798.28;;;10.45;83.94
70015;BME280;57358;51.094;6.760;2023-04-28T01:52:35;100792.38;;;10.40;84.43
70015;BME280;57358;51.094;6.760;2023-04-28T01:55:02;100806.81;;;10.48;84.38
70015;BME280;57358;51.094;6.760;2023-04-28T01:57:29;100814.00;;;10.45;84.19
70015;BME280;57358;51.094;6.760;2023-04-28T01:59:55;100800.97;;;10.43;84.85
70015;BME280;57358;51.094;6.760;2023-04-28T02:02:21;100777.13;;;10.30;84.60
70015;BME280;57358;51.094;6.760;2023-04-28T02:04:48;100773.97;;;10.22;85.33
70015;BME280;57358;51.094;6.760;2023-04-28T02:07:14;100799.50;;;10.37;86.27
70015;BME280;57358;51.094;6.760;2023-04-28T02:09:41;100809.22;;;10.35;87.22
70015;BME280;57358;51.094;6.760;2023-04-28T02:12:07;100812.91;;;10.31;88.76
70015;BME280;57358;51.094;6.760;2023-04-28T02:14:34;100812.16;;;10.28;89.84
70015;BME280;57358;51.094;6.760;2023-04-28T02:17:00;100620.63;;;9.06;90.60
70015;BME280;57358;51.094;6.760;2023-04-28T02:19:28;100792.63;;;10.16;91.96
70015;BME280;57358;51.094;6.760;2023-04-28T02:21:54;100798.34;;;10.24;92.69
70015;BME280;57358;51.094;6.760;2023-04-28T02:24:21;100744.19;;;9.88;93.68
70015;BME280;57358;51.094;6.760;2023-04-28T02:26:47;100790.97;;;10.15;94.41
70015;BME280;57358;51.094;6.760;2023-04-28T02:29:14;100678.88;;;9.47;94.74
70015;BME280;57358;51.094;6.760;2023-04-28T02:31:40;100743.13;;;9.92;95.87
70015;BME280;57358;51.094;6.760;2023-04-28T02:34:07;100772.53;;;10.16;96.32
70015;BME280;57358;51.094;6.760;2023-04-28T02:36:33;100763.19;;;10.11;96.24
70015;BME280;57358;51.094;6.760;2023-04-28T02:38:59;100759.78;;;10.09;96.88
70015;BME280;57358;51.094;6.760;2023-04-28T02:41:26;100742.09;;;9.95;98.34
70015;BME280;57358;51.094;6.760;2023-04-28T02:43:53;100746.34;;;9.97;99.44
70015;BME280;57358;51.094;6.760;2023-04-28T02:46:20;100739.50;;;9.95;100.00
70015;BME280;57358;51.094;6.760;2023-04-28T02:48:46;100749.19;;;9.93;100.00
70015;BME280;57358;51.094;6.760;2023-04-28T02:51:13;100743.97;;;9.93;100.00
70015;BME280;57358;51.094;6.760;2023-04-28T02:53:39;100739.56;;;9.93;100.00
70015;BME280;57358;51.094;6.760;2023-04-28T02:56:06;100726.44;;;9.93;100.00
70015;BME280;57358;51.094;6.760;2023-04-28T02:58:32;100720.38;;;9.93;100.00
70015;BME280;57358;51.094;6.760;2023-04-28T03:00:59;100665.28;;;9.75;100.00
70015;BME280;57358;51.094;6.760;2023-04-28T03:03:25;100688.97;;;9.91;100.00
70015;BME280;57358;51.094;6.760;2023-04-28T03:05:52;100682.81;;;9.92;100.00
70015;BME280;57358;51.094;6.760;2023-04-28T03:08:19;100653.97;;;9.75;100.00
70015;BME280;57358;51.094;6.760;2023-04-28T03:10:46;100673.94;;;9.77;100.00
70015;BME280;57358;51.094;6.760;2023-04-28T03:13:12;100611.91;;;9.42;100.00
70015;BME280;57358;51.094;6.760;2023-04-28T03:15:39;100680.81;;;9.97;100.00
70015;BME280;57358;51.094;6.760;2023-04-28T03:18:05;100598.53;;;9.48;100.00
70015;BME280;57358;51.094;6.760;2023-04-28T03:20:32;100685.13;;;9.98;100.00
70015;BME280;57358;51.094;6.760;2023-04-28T03:22:58;100680.34;;;9.89;100.00
70015;BME280;57358;51.094;6.760;2023-04-28T03:25:25;100575.94;;;9.28;100.00
70015;BME280;57358;51.094;6.760;2023-04-28T03:27:51;100693.91;;;9.97;100.00
70015;BME280;57358;51.094;6.760;2023-04-28T03:30:18;100673.72;;;9.99;100.00
70015;BME280;57358;51.094;6.760;2023-04-28T03:32:44;100662.44;;;9.97;100.00
70015;BME280;57358;51.094;6.760;2023-04-28T03:35:11;100653.69;;;9.98;100.00
70015;BME280;57358;51.094;6.760;2023-04-28T03:37:38;100564.16;;;9.36;100.00
70015;BME280;57358;51.094;6.760;2023-04-28T03:40:04;100620.03;;;9.72;100.00
70015;BME280;57358;51.094;6.760;2023-04-28T03:42:31;100592.06;;;9.55;100.00
70015;BME280;57358;51.094;6.760;2023-04-28T03:44:57;100627.38;;;9.65;100.00
70015;BME280;57358;51.094;6.760;2023-04-28T03:47:24;100594.28;;;9.45;100.00
70015;BME280;57358;51.094;6.760;2023-04-28T03:49:50;100551.03;;;9.19;100.00
70015;BME280;57358;51.094;6.760;2023-04-28T03:52:17;100609.47;;;9.56;100.00
70015;BME280;57358;51.094;6.760;2023-04-28T03:54:44;100569.47;;;9.35;100.00
70015;BME280;57358;51.094;6.760;2023-04-28T03:57:10;100568.06;;;9.28;100.00
70015;BME280;57358;51.094;6.760;2023-04-28T03:59:37;100550.03;;;9.04;100.00
70015;BME280;57358;51.094;6.760;2023-04-28T04:02:03;100598.69;;;9.45;100.00
70015;BME280;57358;51.094;6.760;2023-04-28T04:04:30;100584.25;;;9.36;100.00
70015;BME280;57358;51.094;6.760;2023-04-28T04:06:58;100491.88;;;8.97;100.00
70015;BME280;57358;51.094;6.760;2023-04-28T04:09:24;100563.09;;;9.41;100.00
70015;BME280;57358;51.094;6.760;2023-04-28T04:11:51;100574.28;;;9.44;100.00
70015;BME280;57358;51.094;6.760;2023-04-28T04:14:18;100563.09;;;9.41;100.00
70015;BME280;57358;51.094;6.760;2023-04-28T04:16:45;100576.72;;;9.47;100.00
70015;BME280;57358;51.094;6.760;2023-04-28T04:19:13;100512.22;;;9.10;100.00
70015;BME280;57358;51.094;6.760;2023-04-28T04:21:39;100453.28;;;8.84;100.00
70015;BME280;57358;51.094;6.760;2023-04-28T04:24:06;100532.03;;;9.33;100.00
70015;BME280;57358;51.094;6.760;2023-04-28T04:26:33;100582.75;;;9.49;100.00
70015;BME280;57358;51.094;6.760;2023-04-28T04:28:59;100510.66;;;8.88;100.00
70015;BME280;57358;51.094;6.760;2023-04-28T04:31:26;100334.47;;;7.97;100.00
70015;BME280;57358;51.094;6.760;2023-04-28T04:33:53;100533.44;;;9.23;100.00
70015;BME280;57358;51.094;6.760;2023-04-28T04:36:19;100528.19;;;9.23;100.00
70015;BME280;57358;51.094;6.760;2023-04-28T04:38:46;100533.81;;;9.32;100.00
70015;BME280;57358;51.094;6.760;2023-04-28T04:41:12;100583.75;;;9.64;100.00
70015;BME280;57358;51.094;6.760;2023-04-28T04:43:39;100584.53;;;9.66;100.00
70015;BME280;57358;51.094;6.760;2023-04-28T04:46:06;100581.91;;;9.66;100.00
70015;BME280;57358;51.094;6.760;2023-04-28T04:48:32;100578.28;;;9.69;100.00
70015;BME280;57358;51.094;6.760;2023-04-28T04:50:59;100587.75;;;9.71;100.00
70015;BME280;57358;51.094;6.760;2023-04-28T04:53:25;100587.50;;;9.76;100.00
70015;BME280;57358;51.094;6.760;2023-04-28T04:55:52;100471.88;;;9.14;100.00
70015;BME280;57358;51.094;6.760;2023-04-28T04:58:18;100590.50;;;9.86;100.00
70015;BME280;57358;51.094;6.760;2023-04-28T05:00:45;100590.38;;;9.89;100.00
70015;BME280;57358;51.094;6.760;2023-04-28T05:03:11;100591.16;;;9.91;100.00
70015;BME280;57358;51.094;6.760;2023-04-28T05:05:38;100587.50;;;9.93;100.00
70015;BME280;57358;51.094;6.760;2023-04-28T05:08:05;100586.66;;;9.93;100.00
70015;BME280;57358;51.094;6.760;2023-04-28T05:10:32;100560.22;;;9.80;100.00
70015;BME280;57358;51.094;6.760;2023-04-28T05:12:58;100587.81;;;9.87;100.00
70015;BME280;57358;51.094;6.760;2023-04-28T05:15:24;100544.59;;;9.61;100.00
70015;BME280;57358;51.094;6.760;2023-04-28T05:17:51;100585.28;;;9.86;100.00
70015;BME280;57358;51.094;6.760;2023-04-28T05:20:17;100591.38;;;9.86;100.00
70015;BME280;57358;51.094;6.760;2023-04-28T05:22:44;100583.75;;;9.82;100.00
70015;BME280;57358;51.094;6.760;2023-04-28T05:25:10;100589.53;;;9.88;100.00
70015;BME280;57358;51.094;6.760;2023-04-28T05:27:37;100593.75;;;9.91;100.00
70015;BME280;57358;51.094;6.760;2023-04-28T05:30:06;100587.75;;;9.89;100.00
70015;BME280;57358;51.094;6.760;2023-04-28T05:32:34;100587.00;;;9.87;100.00
70015;BME280;57358;51.094;6.760;2023-04-28T05:35:02;100590.97;;;9.94;100.00
70015;BME280;57358;51.094;6.760;2023-04-28T05:37:29;100556.00;;;9.77;100.00
70015;BME280;57358;51.094;6.760;2023-04-28T05:39:55;100491.06;;;9.49;100.00
70015;BME280;57358;51.094;6.760;2023-04-28T05:42:21;100565.25;;;9.85;100.00
70015;BME280;57358;51.094;6.760;2023-04-28T05:44:48;100588.66;;;10.05;100.00
70015;BME280;57358;51.094;6.760;2023-04-28T05:47:15;100518.78;;;9.71;100.00
70015;BME280;57358;51.094;6.760;2023-04-28T05:49:41;100515.97;;;9.74;100.00
70015;BME280;57358;51.094;6.760;2023-04-28T05:52:07;100577.28;;;10.22;100.00
70015;BME280;57358;51.094;6.760;2023-04-28T05:54:34;100492.50;;;9.72;100.00
70015;BME280;57358;51.094;6.760;2023-04-28T05:57:01;100575.81;;;10.34;100.00
70015;BME280;57358;51.094;6.760;2023-04-28T05:59:28;100581.41;;;10.44;100.00
70015;BME280;57358;51.094;6.760;2023-04-28T06:01:56;100461.13;;;9.71;100.00
70015;BME280;57358;51.094;6.760;2023-04-28T06:04:22;100583.50;;;10.54;100.00
70015;BME280;57358;51.094;6.760;2023-04-28T06:06:50;100580.41;;;10.62;100.00
70015;BME280;57358;51.094;6.760;2023-04-28T06:09:17;100450.50;;;9.90;100.00
70015;BME280;57358;51.094;6.760;2023-04-28T06:11:44;100567.72;;;10.70;100.00
70015;BME280;57358;51.094;6.760;2023-04-28T06:14:11;100511.59;;;10.41;100.00
70015;BME280;57358;51.094;6.760;2023-04-28T06:16:37;100570.47;;;10.69;100.00
70015;BME280;57358;51.094;6.760;2023-04-28T06:19:03;100575.53;;;10.72;100.00
70015;BME280;57358;51.094;6.760;2023-04-28T06:21:30;100533.22;;;10.29;100.00
70015;BME280;57358;51.094;6.760;2023-04-28T06:23:57;100586.22;;;10.69;100.00
70015;BME280;57358;51.094;6.760;2023-04-28T06:26:24;100582.81;;;10.67;100.00
70015;BME280;57358;51.094;6.760;2023-04-28T06:28:50;100590.28;;;10.74;100.00
70015;BME280;57358;51.094;6.760;2023-04-28T06:31:17;100580.63;;;10.75;100.00
70015;BME280;57358;51.094;6.760;2023-04-28T06:33:43;100590.44;;;10.87;100.00
70015;BME280;57358;51.094;6.760;2023-04-28T06:36:10;100585.53;;;10.97;100.00
70015;BME280;57358;51.094;6.760;2023-04-28T06:38:42;100592.81;;;11.08;100.00
70015;BME280;57358;51.094;6.760;2023-04-28T06:41:09;100587.94;;;11.32;100.00
70015;BME280;57358;51.094;6.760;2023-04-28T06:43:36;100578.38;;;11.61;100.00
70015;BME280;57358;51.094;6.760;2023-04-28T06:46:03;100396.81;;;10.76;100.00
70015;BME280;57358;51.094;6.760;2023-04-28T06:48:29;100495.69;;;11.67;100.00
70015;BME280;57358;51.094;6.760;2023-04-28T06:50:56;100561.31;;;12.27;98.74
70015;BME280;57358;51.094;6.760;2023-04-28T06:53:22;100546.00;;;11.91;97.76
70015;BME280;57358;51.094;6.760;2023-04-28T06:55:49;100561.56;;;11.94;98.93
70015;BME280;57358;51.094;6.760;2023-04-28T06:58:15;100546.19;;;11.72;98.09
70015;BME280;57358;51.094;6.760;2023-04-28T07:00:42;100522.25;;;11.32;99.95
70015;BME280;57358;51.094;6.760;2023-04-28T07:03:08;100562.03;;;11.56;100.00
70015;BME280;57358;51.094;6.760;2023-04-28T07:05:35;100580.94;;;11.63;100.00
70015;BME280;57358;51.094;6.760;2023-04-28T07:08:02;100583.84;;;11.72;100.00
70015;BME280;57358;51.094;6.760;2023-04-28T07:10:28;100575.72;;;11.77;100.00
70015;BME280;57358;51.094;6.760;2023-04-28T07:12:55;100582.09;;;11.73;100.00
70015;BME280;57358;51.094;6.760;2023-04-28T07:15:21;100615.97;;;11.77;100.00
70015;BME280;57358;51.094;6.760;2023-04-28T07:17:49;100590.63;;;11.76;100.00
70015;BME280;57358;51.094;6.760;2023-04-28T07:20:16;100513.31;;;11.20;100.00
70015;BME280;57358;51.094;6.760;2023-04-28T07:22:42;100572.97;;;11.48;100.00
70015;BME280;57358;51.094;6.760;2023-04-28T07:25:09;100536.88;;;11.06;100.00
70015;BME280;57358;51.094;6.760;2023-04-28T07:27:35;100579.25;;;11.15;100.00
70015;BME280;57358;51.094;6.760;2023-04-28T07:30:02;100523.91;;;10.72;100.00
70015;BME280;57358;51.094;6.760;2023-04-28T07:32:44;100575.78;;;11.15;100.00
70015;BME280;57358;51.094;6.760;2023-04-28T07:35:10;100567.19;;;11.27;100.00
70015;BME280;57358;51.094;6.760;2023-04-28T07:37:37;100611.38;;;11.67;100.00
70015;BME280;57358;51.094;6.760;2023-04-28T07:40:04;100601.59;;;11.69;100.00
70015;BME280;57358;51.094;6.760;2023-04-28T07:42:31;100571.19;;;11.65;100.00
70015;BME280;57358;51.094;6.760;2023-04-28T07:44:58;100611.84;;;12.04;100.00
70015;BME280;57358;51.094;6.760;2023-04-28T07:47:26;100530.50;;;11.70;100.00
70015;BME280;57358;51.094;6.760;2023-04-28T07:49:54;100598.91;;;12.15;100.00
70015;BME280;57358;51.094;6.760;2023-04-28T07:52:20;100591.56;;;12.06;100.00
70015;BME280;57358;51.094;6.760;2023-04-28T07:54:47;100525.53;;;11.66;100.00
70015;BME280;57358;51.094;6.760;2023-04-28T07:57:13;100592.88;;;12.13;100.00
70015;BME280;57358;51.094;6.760;2023-04-28T07:59:40;100577.84;;;12.15;100.00
70015;BME280;57358;51.094;6.760;2023-04-28T08:02:06;100568.84;;;12.05;100.00
70015;BME280;57358;51.094;6.760;2023-04-28T08:04:33;100579.34;;;12.05;100.00
70015;BME280;57358;51.094;6.760;2023-04-28T08:07:00;100529.47;;;11.89;100.00
70015;BME280;57358;51.094;6.760;2023-04-28T08:09:27;100599.16;;;12.25;100.00
70015;BME280;57358;51.094;6.760;2023-04-28T08:11:53;100603.41;;;12.27;100.00
70015;BME280;57358;51.094;6.760;2023-04-28T08:14:19;100604.16;;;12.29;100.00
70015;BME280;57358;51.094;6.760;2023-04-28T08:16:46;100547.50;;;11.95;100.00
70015;BME280;57358;51.094;6.760;2023-04-28T08:19:13;100399.53;;;11.20;100.00
70015;BME280;57358;51.094;6.760;2023-04-28T08:21:40;100600.59;;;12.59;100.00
70015;BME280;57358;51.094;6.760;2023-04-28T08:24:06;100605.72;;;12.89;100.00
70015;BME280;57358;51.094;6.760;2023-04-28T08:26:36;100607.34;;;13.05;100.00
70015;BME280;57358;51.094;6.760;2023-04-28T08:29:03;100612.19;;;13.40;100.00
70015;BME280;57358;51.094;6.760;2023-04-28T08:31:30;100594.09;;;13.61;100.00
70015;BME280;57358;51.094;6.760;2023-04-28T08:33:57;100595.84;;;13.87;100.00
70015;BME280;57358;51.094;6.760;2023-04-28T08:36:24;100535.13;;;13.49;97.80
70015;BME280;57358;51.094;6.760;2023-04-28T08:38:51;100592.69;;;14.08;97.40
70015;BME280;57358;51.094;6.760;2023-04-28T08:41:20;100588.47;;;14.05;95.96
70015;BME280;57358;51.094;6.760;2023-04-28T08:43:48;100581.31;;;14.07;95.05
70015;BME280;57358;51.094;6.760;2023-04-28T08:46:14;100501.38;;;13.54;93.77
70015;BME280;57358;51.094;6.760;2023-04-28T08:48:43;100581.09;;;14.23;92.54
70015;BME280;57358;51.094;6.760;2023-04-28T08:51:15;100586.97;;;14.40;92.54
70015;BME280;57358;51.094;6.760;2023-04-28T08:53:49;100568.41;;;14.03;91.34
70015;BME280;57358;51.094;6.760;2023-04-28T08:56:23;100479.34;;;13.42;92.48
70015;BME280;57358;51.094;6.760;2023-04-28T08:58:52;100575.34;;;13.91;93.64
70015;BME280;57358;51.094;6.760;2023-04-28T09:01:19;100579.06;;;13.88;94.40
70015;BME280;57358;51.094;6.760;2023-04-28T09:03:46;100586.78;;;13.91;96.61
70015;BME280;57358;51.094;6.760;2023-04-28T09:06:14;100600.47;;;13.96;98.84
70015;BME280;57358;51.094;6.760;2023-04-28T09:08:41;100586.22;;;13.86;99.26
70015;BME280;57358;51.094;6.760;2023-04-28T09:11:09;100614.22;;;14.14;99.36
70015;BME280;57358;51.094;6.760;2023-04-28T09:13:36;100501.47;;;13.52;100.00
70015;BME280;57358;51.094;6.760;2023-04-28T09:16:03;100626.56;;;14.52;100.00
70015;BME280;57358;51.094;6.760;2023-04-28T09:18:29;100629.69;;;14.96;100.00
70015;BME280;57358;51.094;6.760;2023-04-28T09:21:06;100591.41;;;15.02;100.00
70015;BME280;57358;51.094;6.760;2023-04-28T09:23:33;100615.69;;;15.31;97.90
70015;BME280;57358;51.094;6.760;2023-04-28T09:26:04;100592.00;;;15.05;96.50
70015;BME280;57358;51.094;6.760;2023-04-28T09:28:32;100599.19;;;14.79;98.43
70015;BME280;57358;51.094;6.760;2023-04-28T09:30:59;100607.47;;;14.36;100.00
70015;BME280;57358;51.094;6.760;2023-04-28T09:33:26;100622.13;;;14.14;100.00
70015;BME280;57358;51.094;6.760;2023-04-28T09:35:53;100534.84;;;13.66;100.00
70015;BME280;57358;51.094;6.760;2023-04-28T09:38:21;100636.59;;;14.34;100.00
70015;BME280;57358;51.094;6.760;2023-04-28T09:40:58;100634.81;;;14.35;100.00
70015;BME280;57358;51.094;6.760;2023-04-28T09:45:57;100631.97;;;14.25;100.00
70015;BME280;57358;51.094;6.760;2023-04-28T09:48:31;100628.16;;;14.04;100.00
70015;BME280;57358;51.094;6.760;2023-04-28T09:51:00;100632.38;;;14.06;100.00
70015;BME280;57358;51.094;6.760;2023-04-28T09:53:27;100632.06;;;14.11;100.00
70015;BME280;57358;51.094;6.760;2023-04-28T09:55:56;100623.72;;;14.04;100.00
70015;BME280;57358;51.094;6.760;2023-04-28T09:58:24;100628.34;;;14.01;100.00
70015;BME280;57358;51.094;6.760;2023-04-28T10:00:55;100617.78;;;13.88;100.00
70015;BME280;57358;51.094;6.760;2023-04-28T10:03:25;100623.94;;;14.14;100.00
70015;BME280;57358;51.094;6.760;2023-04-28T10:05:56;100431.09;;;13.14;100.00
70015;BME280;57358;51.094;6.760;2023-04-28T10:08:23;100622.56;;;14.47;100.00
70015;BME280;57358;51.094;6.760;2023-04-28T10:10:54;100613.25;;;14.54;100.00
70015;BME280;57358;51.094;6.760;2023-04-28T10:13:24;100568.50;;;14.27;100.00
70015;BME280;57358;51.094;6.760;2023-04-28T10:15:51;100613.47;;;14.51;100.00
70015;BME280;57358;51.094;6.760;2023-04-28T10:18:22;100617.69;;;14.41;100.00
70015;BME280;57358;51.094;6.760;2023-04-28T10:20:54;100608.31;;;14.49;100.00
70015;BME280;57358;51.094;6.760;2023-04-28T10:23:48;100610.75;;;14.40;100.00
70015;BME280;57358;51.094;6.760;2023-04-28T10:26:18;100549.00;;;14.04;100.00
70015;BME280;57358;51.094;6.760;2023-04-28T10:28:47;100504.44;;;13.99;100.00
70015;BME280;57358;51.094;6.760;2023-04-28T10:31:18;100616.19;;;14.75;100.00
70015;BME280;57358;51.094;6.760;2023-04-28T10:33:48;100613.09;;;14.94;100.00
70015;BME280;57358;51.094;6.760;2023-04-28T10:36:49;100613.59;;;14.99;100.00
70015;BME280;57358;51.094;6.760;2023-04-28T10:39:18;100605.31;;;15.16;100.00
70015;BME280;57358;51.094;6.760;2023-04-28T10:41:46;100603.91;;;15.24;100.00
70015;BME280;57358;51.094;6.760;2023-04-28T10:47:05;100607.94;;;15.16;100.00
70015;BME280;57358;51.094;6.760;2023-04-28T10:55:32;100593.72;;;15.30;100.00
70015;BME280;57358;51.094;6.760;2023-04-28T11:00:42;100541.88;;;15.52;100.00
70015;BME280;57358;51.094;6.760;2023-04-28T11:03:08;100604.63;;;16.32;100.00
70015;BME280;57358;51.094;6.760;2023-04-28T11:08:52;100596.38;;;17.46;100.00
70015;BME280;57358;51.094;6.760;2023-04-28T11:11:24;100562.31;;;16.98;100.00
70015;BME280;57358;51.094;6.760;2023-04-28T11:13:53;100507.34;;;17.00;100.00
70015;BME280;57358;51.094;6.760;2023-04-28T11:16:23;100523.56;;;17.39;100.00
70015;BME280;57358;51.094;6.760;2023-04-28T11:19:00;100442.84;;;16.67;100.00
70015;BME280;57358;51.094;6.760;2023-04-28T11:21:31;100524.03;;;16.68;100.00
70015;BME280;57358;51.094;6.760;2023-04-28T11:23:58;100538.50;;;16.30;100.00
70015;BME280;57358;51.094;6.760;2023-04-28T11:26:26;100555.25;;;16.31;100.00
70015;BME280;57358;51.094;6.760;2023-04-28T11:28:54;100570.41;;;16.63;100.00
70015;BME280;57358;51.094;6.760;2023-04-28T11:31:23;100555.72;;;16.47;100.00
70015;BME280;57358;51.094;6.760;2023-04-28T11:33:58;100574.34;;;16.80;100.00
70015;BME280;57358;51.094;6.760;2023-04-28T11:36:31;100563.22;;;17.08;100.00
70015;BME280;57358;51.094;6.760;2023-04-28T11:38:58;100550.88;;;17.51;100.00
70015;BME280;57358;51.094;6.760;2023-04-28T11:41:26;100511.50;;;17.35;100.00
70015;BME280;57358;51.094;6.760;2023-04-28T11:43:52;100460.00;;;17.38;100.00
70015;BME280;57358;51.094;6.760;2023-04-28T11:46:21;100513.72;;;17.30;99.77
70015;BME280;57358;51.094;6.760;2023-04-28T11:48:48;100356.72;;;16.41;100.00
70015;BME280;57358;51.094;6.760;2023-04-28T11:51:37;100535.69;;;17.21;100.00
70015;BME280;57358;51.094;6.760;2023-04-28T11:54:05;100558.56;;;17.86;100.00
70015;BME280;57358;51.094;6.760;2023-04-28T11:56:38;100524.16;;;17.43;97.86
70015;BME280;57358;51.094;6.760;2023-04-28T11:59:09;100515.84;;;17.57;97.93
70015;BME280;57358;51.094;6.760;2023-04-28T12:04:11;100530.72;;;18.42;95.99
70015;BME280;57358;51.094;6.760;2023-04-28T12:06:39;100508.53;;;18.72;92.73
70015;BME280;57358;51.094;6.760;2023-04-28T12:09:16;100501.03;;;19.26;88.50
70015;BME280;57358;51.094;6.760;2023-04-28T12:12:03;100458.06;;;18.82;86.48
70015;BME280;57358;51.094;6.760;2023-04-28T12:14:31;100446.00;;;18.68;85.23
70015;BME280;57358;51.094;6.760;2023-04-28T12:17:00;100342.16;;;18.11;84.01
70015;BME280;57358;51.094;6.760;2023-04-28T12:19:27;100429.09;;;18.99;83.37
70015;BME280;57358;51.094;6.760;2023-04-28T12:22:02;100423.78;;;18.89;83.20
70015;BME280;57358;51.094;6.760;2023-04-28T12:24:29;100281.91;;;18.02;84.05
70015;BME280;57358;51.094;6.760;2023-04-28T12:27:15;100440.91;;;19.53;82.61
70015;BME280;57358;51.094;6.760;2023-04-28T12:29:43;100381.63;;;18.74;80.70
70015;BME280;57358;51.094;6.760;2023-04-28T12:32:12;100412.00;;;18.91;82.86
70015;BME280;57358;51.094;6.760;2023-04-28T12:34:40;100341.75;;;18.45;82.32
70015;BME280;57358;51.094;6.760;2023-04-28T12:37:07;100246.84;;;18.08;81.35
70015;BME280;57358;51.094;6.760;2023-04-28T12:39:35;100401.28;;;19.40;79.87
70015;BME280;57358;51.094;6.760;2023-04-28T12:42:06;100373.59;;;19.33;78.32
70015;BME280;57358;51.094;6.760;2023-04-28T12:44:35;100373.63;;;18.36;82.25
70015;BME280;57358;51.094;6.760;2023-04-28T12:47:06;100429.59;;;18.63;85.60
70015;BME280;57358;51.094;6.760;2023-04-28T12:49:36;100417.19;;;19.03;83.47
70015;BME280;57358;51.094;6.760;2023-04-28T12:52:04;100397.72;;;19.02;82.05
70015;BME280;57358;51.094;6.760;2023-04-28T12:54:31;100306.47;;;18.92;80.78
70015;BME280;57358;51.094;6.760;2023-04-28T12:56:57;100375.59;;;19.59;78.81
70015;BME280;57358;51.094;6.760;2023-04-28T12:59:24;100358.34;;;19.16;79.92
70015;BME280;57358;51.094;6.760;2023-04-28T13:01:50;100391.50;;;19.31;80.73
70015;BME280;57358;51.094;6.760;2023-04-28T13:04:17;100353.88;;;19.16;78.69
70015;BME280;57358;51.094;6.760;2023-04-28T13:06:44;100265.25;;;18.59;77.56
70015;BME280;57358;51.094;6.760;2023-04-28T13:09:15;100293.06;;;18.84;77.86
70015;BME280;57358;51.094;6.760;2023-04-28T13:11:42;100360.25;;;19.43;78.60